Yass Linton Hostel, New South Wales

7:07 AM EST on August 23, 2014 (GMT +1000)
Urban environment | Change Station
CLOSE
Current Station
Personal Weather Station
Location: Yass, NEW SOUTH WALES
Elevation: 1709 ft
Nearby Weather Stations

Elev 1709 ft 34.85 °S, 148.91 °E | Updated 4 seconds ago

Mostly Cloudy
Mostly Cloudy
44.4 °F
Feels Like 44 °F
N
1.6
Wind Variable Wind from SE
Gusts 5.4 mph

Today
High -- | Low -- °F
--% Chance of Precip.
Yesterday
High -- | Low -- °F
Precip. -- in
6:35 AM 5:38 PM
Waning Crescent, 7% visible
Pressure 30.45 in
Visibility 6.2 miles
Clouds Few 700 ft
Mostly Cloudy 1000 ft
Windchill 44 °F
Dew Point 37 °F
Humidity 75%
Rainfall 0.00 in
Snow Depth Not available.
UV 0 out of 12
Pollen Not available.
Air Quality Not available.
Flu Activity Not available.
SPECI YSCB 222100Z 12002KT 9999 FEW007 BKN010 04/04 Q1031 NOSIG

More Conditions Fewer Conditions

Pressure 30.45 in
Visibility 6.2 miles
Clouds Few 700 ft
Mostly Cloudy 1000 ft
Windchill 44 °F
Dew Point 37 °F
Humidity 75%
Rainfall 0.00 in
Snow Depth Not available.
UV 0 out of 12
Pollen Not available.
Air Quality Not available.
Flu Activity Not available.
SPECI YSCB 222100Z 12002KT 9999 FEW007 BKN010 04/04 Q1031 NOSIG

More Conditions Fewer Conditions

10-Day Weather Forecast

Almanac

Astronomy

Aug. 23, 2014 Rise Set
Actual Time 6:35 AM EST 5:38 PM EST
Civil Twilight 6:10 AM EST 6:04 PM EST
Nautical Twilight 5:40 AM EST 6:34 PM EST
Astronomical Twilight 5:11 AM EST 7:03 PM EST
Moon 4:44 AM EST (8/23) 3:38 PM EST (8/23)
Length of Visible Light 11h 54m
Length of Day
11h 03m
Tomorrow will be 1m 58s longer.
Waning Crescent, 7% of the Moon is Illuminated
Aug 22
Waning Crescent
Aug 25
New
Sep 2
First Quarter
Sep 8
Full
Sep 15
Last Quarter

Yesterday's Extremes

Country Highs Country Lows

Community

WunderPhotos

Upload Photos

1,746,253 photos uploaded!

Nearby

Snow Depth

Not available.

Earthquake Activity

City Distance Mag. Time & Date
No recent earthquake activity has been reported nearby.
Minimum magnitude displayed is 2.5.

Coastal Water Temperatures

Place Temperature
No Stations Reporting

Nearby Weather Stations